sensor_id;sensor_type;location;lat;lon;timestamp;pressure;altitude;pressure_sealevel;temperature;humidity
6435;BME280;3250;42.694;23.278;2023-03-23T00:02:11;94817.50;;;6.29;93.90
6435;BME280;3250;42.694;23.278;2023-03-23T00:04:36;94806.88;;;6.31;93.28
6435;BME280;3250;42.694;23.278;2023-03-23T00:07:02;94807.66;;;6.31;92.92
6435;BME280;3250;42.694;23.278;2023-03-23T00:09:28;94805.03;;;6.31;92.64
6435;BME280;3250;42.694;23.278;2023-03-23T00:11:55;94807.47;;;6.33;92.22
6435;BME280;3250;42.694;23.278;2023-03-23T00:14:31;94802.44;;;6.31;92.54
6435;BME280;3250;42.694;23.278;2023-03-23T00:17:09;94803.25;;;6.32;92.23
6435;BME280;3250;42.694;23.278;2023-03-23T00:19:37;94806.88;;;6.31;92.11
6435;BME280;3250;42.694;23.278;2023-03-23T00:22:12;94798.75;;;6.26;91.79
6435;BME280;3250;42.694;23.278;2023-03-23T00:24:37;94809.84;;;6.28;91.88
6435;BME280;3250;42.694;23.278;2023-03-23T00:27:03;94801.31;;;6.19;91.82
6435;BME280;3250;42.694;23.278;2023-03-23T00:29:28;94808.41;;;6.25;91.25
6435;BME280;3250;42.694;23.278;2023-03-23T00:31:54;94793.59;;;6.11;91.06
6435;BME280;3250;42.694;23.278;2023-03-23T00:34:22;94813.22;;;6.22;91.33
6435;BME280;3250;42.694;23.278;2023-03-23T00:36:54;94819.63;;;6.19;91.44
6435;BME280;3250;42.694;23.278;2023-03-23T00:39:23;94792.91;;;6.02;91.33
6435;BME280;3250;42.694;23.278;2023-03-23T00:41:51;94825.84;;;6.18;91.71
6435;BME280;3250;42.694;23.278;2023-03-23T00:44:17;94823.22;;;6.18;91.22
6435;BME280;3250;42.694;23.278;2023-03-23T00:46:46;94823.56;;;6.15;91.50
6435;BME280;3250;42.694;23.278;2023-03-23T00:49:15;94821.34;;;6.12;91.67
6435;BME280;3250;42.694;23.278;2023-03-23T00:51:41;94820.59;;;6.18;91.80
6435;BME280;3250;42.694;23.278;2023-03-23T00:54:07;94828.16;;;6.28;91.55
6435;BME280;3250;42.694;23.278;2023-03-23T00:56:33;94813.41;;;6.20;91.29
6435;BME280;3250;42.694;23.278;2023-03-23T00:58:59;94826.97;;;6.30;91.62
6435;BME280;3250;42.694;23.278;2023-03-23T01:01:24;94818.69;;;6.27;91.51
6435;BME280;3250;42.694;23.278;2023-03-23T01:03:50;94838.66;;;6.34;91.37
6435;BME280;3250;42.694;23.278;2023-03-23T01:06:15;94823.47;;;6.23;91.64
6435;BME280;3250;42.694;23.278;2023-03-23T01:08:41;94837.03;;;6.33;91.78
6435;BME280;3250;42.694;23.278;2023-03-23T01:11:13;94839.66;;;6.33;91.73
6435;BME280;3250;42.694;23.278;2023-03-23T01:13:40;94828.50;;;6.25;91.74
6435;BME280;3250;42.694;23.278;2023-03-23T01:16:07;94838.66;;;6.34;91.95
6435;BME280;3250;42.694;23.278;2023-03-23T01:18:32;94815.63;;;6.23;91.63
6435;BME280;3250;42.694;23.278;2023-03-23T01:21:03;94813.81;;;6.24;91.83
6435;BME280;3250;42.694;23.278;2023-03-23T01:23:29;94829.78;;;6.29;92.34
6435;BME280;3250;42.694;23.278;2023-03-23T01:25:54;94832.00;;;6.32;91.87
6435;BME280;3250;42.694;23.278;2023-03-23T01:28:23;94823.16;;;6.33;91.86
6435;BME280;3250;42.694;23.278;2023-03-23T01:30:48;94826.22;;;6.36;92.31
6435;BME280;3250;42.694;23.278;2023-03-23T01:33:13;94828.47;;;6.39;92.19
6435;BME280;3250;42.694;23.278;2023-03-23T01:35:39;94810.09;;;6.33;92.28
6435;BME280;3250;42.694;23.278;2023-03-23T01:38:04;94812.34;;;6.36;92.04
6435;BME280;3250;42.694;23.278;2023-03-23T01:40:29;94823.94;;;6.48;92.31
6435;BME280;3250;42.694;23.278;2023-03-23T01:42:55;94816.28;;;6.47;92.16
6435;BME280;3250;42.694;23.278;2023-03-23T01:45:24;94791.97;;;6.31;92.13
6435;BME280;3250;42.694;23.278;2023-03-23T01:48:20;94816.28;;;6.47;92.05
6435;BME280;3250;42.694;23.278;2023-03-23T01:53:37;94809.06;;;6.49;92.65
6435;BME280;3250;42.694;23.278;2023-03-23T01:56:04;94810.94;;;6.55;92.96
6435;BME280;3250;42.694;23.278;2023-03-23T01:58:32;94804.63;;;6.49;93.14
6435;BME280;3250;42.694;23.278;2023-03-23T02:01:02;94776.13;;;6.33;93.03
6435;BME280;3250;42.694;23.278;2023-03-23T02:03:29;94807.44;;;6.48;93.05
6435;BME280;3250;42.694;23.278;2023-03-23T02:05:57;94780.00;;;6.37;93.13
6435;BME280;3250;42.694;23.278;2023-03-23T02:08:24;94805.06;;;6.53;93.45
6435;BME280;3250;42.694;23.278;2023-03-23T02:10:52;94796.78;;;6.49;93.61
6435;BME280;3250;42.694;23.278;2023-03-23T02:13:17;94806.50;;;6.55;93.02
6435;BME280;3250;42.694;23.278;2023-03-23T02:16:04;94811.44;;;6.65;92.53
6435;BME280;3250;42.694;23.278;2023-03-23T02:26:32;94811.22;;;6.66;92.22
6435;BME280;3250;42.694;23.278;2023-03-23T02:29:28;94813.66;;;6.68;92.10
6435;BME280;3250;42.694;23.278;2023-03-23T02:34:39;94804.56;;;6.64;91.81
6435;BME280;3250;42.694;23.278;2023-03-23T02:37:24;94808.19;;;6.63;91.61
6435;BME280;3250;42.694;23.278;2023-03-23T02:40:02;94809.31;;;6.54;91.49
6435;BME280;3250;42.694;23.278;2023-03-23T02:42:36;94817.50;;;6.51;91.73
6435;BME280;3250;42.694;23.278;2023-03-23T02:45:03;94816.28;;;6.47;91.92
6435;BME280;3250;42.694;23.278;2023-03-23T02:47:32;94802.06;;;6.34;91.71
6435;BME280;3250;42.694;23.278;2023-03-23T02:49:59;94813.78;;;6.38;91.67
6435;BME280;3250;42.694;23.278;2023-03-23T02:52:29;94827.28;;;6.42;91.90
6435;BME280;3250;42.694;23.278;2023-03-23T02:54:56;94814.97;;;6.36;91.89
6435;BME280;3250;42.694;23.278;2023-03-23T02:57:24;94832.69;;;6.40;91.71
6435;BME280;3250;42.694;23.278;2023-03-23T02:59:51;94830.28;;;6.39;91.93
6435;BME280;3250;42.694;23.278;2023-03-23T03:02:31;94834.88;;;6.37;91.94
6435;BME280;3250;42.694;23.278;2023-03-23T03:12:52;94846.78;;;6.39;93.36
6435;BME280;3250;42.694;23.278;2023-03-23T03:15:59;94846.56;;;6.41;93.38
6435;BME280;3250;42.694;23.278;2023-03-23T03:18:28;94854.63;;;6.39;93.30
6435;BME280;3250;42.694;23.278;2023-03-23T03:21:06;94856.44;;;6.39;92.96
6435;BME280;3250;42.694;23.278;2023-03-23T03:23:34;94830.31;;;6.24;92.88
6435;BME280;3250;42.694;23.278;2023-03-23T03:26:02;94854.19;;;6.36;92.63
6435;BME280;3250;42.694;23.278;2023-03-23T03:28:32;94834.31;;;6.20;92.35
6435;BME280;3250;42.694;23.278;2023-03-23T03:30:59;94852.09;;;6.31;92.39
6435;BME280;3250;42.694;23.278;2023-03-23T03:33:27;94852.84;;;6.25;92.07
6435;BME280;3250;42.694;23.278;2023-03-23T03:35:57;94854.56;;;6.18;91.55
6435;BME280;3250;42.694;23.278;2023-03-23T03:38:23;94872.06;;;6.18;91.81
6435;BME280;3250;42.694;23.278;2023-03-23T03:40:49;94863.16;;;6.12;91.99
6435;BME280;3250;42.694;23.278;2023-03-23T03:43:15;94873.84;;;6.17;91.99
6435;BME280;3250;42.694;23.278;2023-03-23T03:45:40;94865.38;;;6.15;92.17
6435;BME280;3250;42.694;23.278;2023-03-23T03:48:07;94865.78;;;6.12;92.23
6435;BME280;3250;42.694;23.278;2023-03-23T03:50:33;94863.41;;;6.17;92.35
6435;BME280;3250;42.694;23.278;2023-03-23T03:52:58;94862.78;;;6.15;91.91
6435;BME280;3250;42.694;23.278;2023-03-23T03:55:24;94858.09;;;6.11;91.30
6435;BME280;3250;42.694;23.278;2023-03-23T03:57:49;94859.28;;;6.08;91.50
6435;BME280;3250;42.694;23.278;2023-03-23T04:00:15;94830.66;;;5.85;91.47
6435;BME280;3250;42.694;23.278;2023-03-23T04:02:43;94855.16;;;5.99;91.49
6435;BME280;3250;42.694;23.278;2023-03-23T04:05:09;94852.72;;;5.97;91.54
6435;BME280;3250;42.694;23.278;2023-03-23T04:07:36;94853.63;;;5.90;91.28
6435;BME280;3250;42.694;23.278;2023-03-23T04:10:06;94852.34;;;5.86;91.29
6435;BME280;3250;42.694;23.278;2023-03-23T04:12:32;94856.13;;;5.83;91.44
6435;BME280;3250;42.694;23.278;2023-03-23T04:14:58;94853.88;;;5.80;92.17
6435;BME280;3250;42.694;23.278;2023-03-23T04:17:23;94856.47;;;5.80;92.21
6435;BME280;3250;42.694;23.278;2023-03-23T04:19:51;94834.63;;;5.66;91.92
6435;BME280;3250;42.694;23.278;2023-03-23T04:22:17;94852.28;;;5.79;91.43
6435;BME280;3250;42.694;23.278;2023-03-23T04:24:43;94833.34;;;5.62;91.38
6435;BME280;3250;42.694;23.278;2023-03-23T04:27:08;94861.34;;;5.83;91.30
6435;BME280;3250;42.694;23.278;2023-03-23T04:29:34;94862.00;;;5.85;91.44
6435;BME280;3250;42.694;23.278;2023-03-23T04:31:59;94844.78;;;5.76;91.25
6435;BME280;3250;42.694;23.278;2023-03-23T04:34:27;94816.25;;;5.60;91.35
6435;BME280;3250;42.694;23.278;2023-03-23T04:36:52;94861.72;;;5.80;91.37
6435;BME280;3250;42.694;23.278;2023-03-23T04:39:18;94841.91;;;5.71;91.70
6435;BME280;3250;42.694;23.278;2023-03-23T04:41:44;94861.53;;;5.82;91.43
6435;BME280;3250;42.694;23.278;2023-03-23T04:44:11;94857.03;;;5.76;91.17
6435;BME280;3250;42.694;23.278;2023-03-23T04:46:42;94865.69;;;5.76;91.05
6435;BME280;3250;42.694;23.278;2023-03-23T04:49:10;94872.34;;;5.79;91.47
6435;BME280;3250;42.694;23.278;2023-03-23T04:51:36;94868.81;;;5.72;91.06
6435;BME280;3250;42.694;23.278;2023-03-23T04:54:01;94868.81;;;5.72;92.08
6435;BME280;3250;42.694;23.278;2023-03-23T04:56:27;94848.59;;;5.59;92.56
6435;BME280;3250;42.694;23.278;2023-03-23T04:58:52;94854.69;;;5.66;92.04
6435;BME280;3250;42.694;23.278;2023-03-23T05:01:17;94881.59;;;5.81;92.08
6435;BME280;3250;42.694;23.278;2023-03-23T05:03:44;94873.25;;;5.86;91.72
6435;BME280;3250;42.694;23.278;2023-03-23T05:06:09;94883.53;;;5.87;90.91
6435;BME280;3250;42.694;23.278;2023-03-23T05:08:35;94893.16;;;5.87;91.12
6435;BME280;3250;42.694;23.278;2023-03-23T05:11:05;94880.72;;;5.89;90.68
6435;BME280;3250;42.694;23.278;2023-03-23T05:13:31;94884.97;;;5.90;91.01
6435;BME280;3250;42.694;23.278;2023-03-23T05:15:57;94883.47;;;5.95;91.15
6435;BME280;3250;42.694;23.278;2023-03-23T05:18:23;94885.34;;;6.01;91.56
6435;BME280;3250;42.694;23.278;2023-03-23T05:20:49;94894.88;;;6.09;92.00
6435;BME280;3250;42.694;23.278;2023-03-23T05:23:18;94900.56;;;6.13;90.87
6435;BME280;3250;42.694;23.278;2023-03-23T05:25:55;94896.31;;;6.12;90.71
6435;BME280;3250;42.694;23.278;2023-03-23T05:28:21;94900.72;;;6.11;90.85
6435;BME280;3250;42.694;23.278;2023-03-23T05:30:47;94907.03;;;6.17;91.30
6435;BME280;3250;42.694;23.278;2023-03-23T05:33:13;94903.13;;;6.27;91.29
6435;BME280;3250;42.694;23.278;2023-03-23T05:35:38;94903.38;;;6.32;91.27
6435;BME280;3250;42.694;23.278;2023-03-23T05:38:04;94912.03;;;6.33;91.02
6435;BME280;3250;42.694;23.278;2023-03-23T05:40:30;94897.81;;;6.35;91.47
6435;BME280;3250;42.694;23.278;2023-03-23T05:42:55;94915.53;;;6.40;91.45
6435;BME280;3250;42.694;23.278;2023-03-23T05:45:24;94906.59;;;6.49;91.90
6435;BME280;3250;42.694;23.278;2023-03-23T05:47:50;94921.00;;;6.60;91.33
6435;BME280;3250;42.694;23.278;2023-03-23T05:50:15;94916.91;;;6.72;91.41
6435;BME280;3250;42.694;23.278;2023-03-23T05:52:42;94906.19;;;6.67;90.78
6435;BME280;3250;42.694;23.278;2023-03-23T05:55:08;94915.13;;;6.72;90.42
6435;BME280;3250;42.694;23.278;2023-03-23T05:57:34;94934.81;;;6.90;89.90
6435;BME280;3250;42.694;23.278;2023-03-23T05:59:59;94918.31;;;6.89;90.11
6435;BME280;3250;42.694;23.278;2023-03-23T06:02:25;94908.66;;;6.90;90.31
6435;BME280;3250;42.694;23.278;2023-03-23T06:04:54;94928.88;;;7.24;90.33
6435;BME280;3250;42.694;23.278;2023-03-23T06:07:23;94909.19;;;7.83;90.18
6435;BME280;3250;42.694;23.278;2023-03-23T06:09:50;94921.41;;;9.06;87.33
6435;BME280;3250;42.694;23.278;2023-03-23T06:12:16;94917.22;;;10.93;80.76
6435;BME280;3250;42.694;23.278;2023-03-23T06:14:48;94948.38;;;12.88;73.33
6435;BME280;3250;42.694;23.278;2023-03-23T06:17:15;94943.28;;;14.34;65.68
6435;BME280;3250;42.694;23.278;2023-03-23T06:19:42;94938.63;;;15.17;62.19
6435;BME280;3250;42.694;23.278;2023-03-23T06:22:08;94959.72;;;16.69;58.84
6435;BME280;3250;42.694;23.278;2023-03-23T06:24:34;94940.72;;;17.79;55.50
6435;BME280;3250;42.694;23.278;2023-03-23T06:26:59;94926.50;;;18.37;51.83
6435;BME280;3250;42.694;23.278;2023-03-23T06:29:25;94930.94;;;18.64;52.32
6435;BME280;3250;42.694;23.278;2023-03-23T06:31:54;94926.06;;;18.14;52.32
6435;BME280;3250;42.694;23.278;2023-03-23T06:34:21;94922.31;;;17.51;53.82
6435;BME280;3250;42.694;23.278;2023-03-23T06:36:47;94931.47;;;17.33;54.82
6435;BME280;3250;42.694;23.278;2023-03-23T06:39:12;94939.19;;;17.61;54.11
6435;BME280;3250;42.694;23.278;2023-03-23T06:41:39;94920.13;;;17.69;54.16
6435;BME280;3250;42.694;23.278;2023-03-23T06:44:05;94938.00;;;18.90;52.23
6435;BME280;3250;42.694;23.278;2023-03-23T06:46:33;94954.28;;;19.61;49.24
6435;BME280;3250;42.694;23.278;2023-03-23T06:48:59;94931.34;;;20.06;47.94
6435;BME280;3250;42.694;23.278;2023-03-23T06:51:24;94949.47;;;20.59;47.65
6435;BME280;3250;42.694;23.278;2023-03-23T06:53:50;94952.09;;;20.90;46.00
6435;BME280;3250;42.694;23.278;2023-03-23T06:56:15;94944.69;;;20.56;47.63
6435;BME280;3250;42.694;23.278;2023-03-23T06:58:41;94958.03;;;20.66;46.12
6435;BME280;3250;42.694;23.278;2023-03-23T07:01:11;94962.34;;;20.22;47.25
6435;BME280;3250;42.694;23.278;2023-03-23T07:03:36;94957.78;;;20.07;47.87
6435;BME280;3250;42.694;23.278;2023-03-23T07:06:02;94965.53;;;19.93;47.69
6435;BME280;3250;42.694;23.278;2023-03-23T07:08:28;94958.31;;;20.09;47.78
6435;BME280;3250;42.694;23.278;2023-03-23T07:10:54;94932.41;;;19.79;47.88
6435;BME280;3250;42.694;23.278;2023-03-23T07:13:20;94945.81;;;19.12;49.93
6435;BME280;3250;42.694;23.278;2023-03-23T07:15:46;94955.75;;;19.27;50.11
6435;BME280;3250;42.694;23.278;2023-03-23T07:18:12;94930.75;;;18.80;50.27
6435;BME280;3250;42.694;23.278;2023-03-23T07:20:37;94950.84;;;18.93;50.78
6435;BME280;3250;42.694;23.278;2023-03-23T07:23:03;94939.47;;;19.23;50.93
6435;BME280;3250;42.694;23.278;2023-03-23T07:25:33;94954.56;;;19.70;49.88
6435;BME280;3250;42.694;23.278;2023-03-23T07:28:00;94957.25;;;19.85;49.15
6435;BME280;3250;42.694;23.278;2023-03-23T07:30:26;94929.44;;;19.76;50.21
6435;BME280;3250;42.694;23.278;2023-03-23T07:32:52;94959.66;;;19.71;50.61
6435;BME280;3250;42.694;23.278;2023-03-23T07:35:18;94958.81;;;19.61;50.30
6435;BME280;3250;42.694;23.278;2023-03-23T07:37:43;94960.66;;;19.55;49.46
6435;BME280;3250;42.694;23.278;2023-03-23T07:40:11;94950.44;;;19.32;49.71
6435;BME280;3250;42.694;23.278;2023-03-23T07:42:44;94969.91;;;19.27;49.16
6435;BME280;3250;42.694;23.278;2023-03-23T07:45:11;94969.56;;;19.08;51.56
6435;BME280;3250;42.694;23.278;2023-03-23T07:47:38;94941.41;;;18.33;51.53
6435;BME280;3250;42.694;23.278;2023-03-23T07:50:04;94941.63;;;18.64;53.68
6435;BME280;3250;42.694;23.278;2023-03-23T07:52:31;94958.00;;;18.88;50.92
6435;BME280;3250;42.694;23.278;2023-03-23T07:54:58;94961.72;;;18.87;51.29
6435;BME280;3250;42.694;23.278;2023-03-23T07:57:23;94965.78;;;18.99;52.21
6435;BME280;3250;42.694;23.278;2023-03-23T07:59:49;94936.16;;;18.96;51.85
6435;BME280;3250;42.694;23.278;2023-03-23T08:02:14;94974.81;;;18.88;50.40
6435;BME280;3250;42.694;23.278;2023-03-23T08:04:40;94968.28;;;18.69;50.68
6435;BME280;3250;42.694;23.278;2023-03-23T08:07:05;94970.28;;;18.89;54.37
6435;BME280;3250;42.694;23.278;2023-03-23T08:09:31;94945.00;;;19.11;52.65
6435;BME280;3250;42.694;23.278;2023-03-23T08:11:56;94974.47;;;19.32;50.44
6435;BME280;3250;42.694;23.278;2023-03-23T08:14:23;94961.28;;;19.05;50.68
6435;BME280;3250;42.694;23.278;2023-03-23T08:16:53;94940.13;;;18.83;51.44
6435;BME280;3250;42.694;23.278;2023-03-23T08:19:20;94947.97;;;19.10;50.48
6435;BME280;3250;42.694;23.278;2023-03-23T08:21:46;94969.88;;;19.17;48.87
6435;BME280;3250;42.694;23.278;2023-03-23T08:24:11;94963.72;;;18.59;51.48
6435;BME280;3250;42.694;23.278;2023-03-23T08:26:36;94956.94;;;18.83;50.98
6435;BME280;3250;42.694;23.278;2023-03-23T08:29:04;94962.34;;;19.04;49.98
6435;BME280;3250;42.694;23.278;2023-03-23T08:31:31;94969.34;;;19.20;52.01
6435;BME280;3250;42.694;23.278;2023-03-23T08:34:00;94927.78;;;18.67;48.33
6435;BME280;3250;42.694;23.278;2023-03-23T08:36:26;94961.84;;;18.60;48.76
6435;BME280;3250;42.694;23.278;2023-03-23T08:38:53;94962.53;;;18.87;49.61
6435;BME280;3250;42.694;23.278;2023-03-23T08:41:18;94965.03;;;19.09;48.71
6435;BME280;3250;42.694;23.278;2023-03-23T08:43:44;94943.34;;;18.85;48.25
6435;BME280;3250;42.694;23.278;2023-03-23T08:46:10;94960.50;;;18.57;46.64
6435;BME280;3250;42.694;23.278;2023-03-23T08:48:36;94939.16;;;17.83;47.78
6435;BME280;3250;42.694;23.278;2023-03-23T08:51:04;94955.22;;;17.93;47.14
6435;BME280;3250;42.694;23.278;2023-03-23T08:53:31;94933.06;;;17.88;50.09
6435;BME280;3250;42.694;23.278;2023-03-23T08:56:05;94931.28;;;18.35;47.73
6435;BME280;3250;42.694;23.278;2023-03-23T08:58:30;94957.13;;;18.72;47.42
6435;BME280;3250;42.694;23.278;2023-03-23T09:00:56;94944.13;;;18.43;48.18
6435;BME280;3250;42.694;23.278;2023-03-23T09:03:21;94957.63;;;18.64;47.13
6435;BME280;3250;42.694;23.278;2023-03-23T09:05:47;94925.09;;;17.88;50.89
6435;BME280;3250;42.694;23.278;2023-03-23T09:08:13;94922.69;;;17.91;48.83
6435;BME280;3250;42.694;23.278;2023-03-23T09:10:39;94927.09;;;17.76;47.67
6435;BME280;3250;42.694;23.278;2023-03-23T09:13:05;94919.16;;;17.54;49.27
6435;BME280;3250;42.694;23.278;2023-03-23T09:15:32;94957.03;;;17.88;50.28
6435;BME280;3250;42.694;23.278;2023-03-23T09:17:58;94954.13;;;17.35;47.82
6435;BME280;3250;42.694;23.278;2023-03-23T09:20:25;94957.81;;;16.86;49.96
6435;BME280;3250;42.694;23.278;2023-03-23T09:22:53;94950.19;;;16.56;49.27
6435;BME280;3250;42.694;23.278;2023-03-23T09:25:20;94944.22;;;16.10;50.15
6435;BME280;3250;42.694;23.278;2023-03-23T09:27:49;94951.72;;;16.13;51.33
6435;BME280;3250;42.694;23.278;2023-03-23T09:30:19;94914.84;;;15.67;51.35
6435;BME280;3250;42.694;23.278;2023-03-23T09:32:46;94932.25;;;15.91;52.49
6435;BME280;3250;42.694;23.278;2023-03-23T09:35:13;94949.84;;;16.14;51.89
6435;BME280;3250;42.694;23.278;2023-03-23T09:37:42;94935.28;;;16.55;51.23
6435;BME280;3250;42.694;23.278;2023-03-23T09:40:18;94930.41;;;16.85;50.16
6435;BME280;3250;42.694;23.278;2023-03-23T09:43:06;94929.38;;;17.13;48.95
6435;BME280;3250;42.694;23.278;2023-03-23T09:48:38;94933.28;;;17.06;48.94
6435;BME280;3250;42.694;23.278;2023-03-23T09:51:32;94930.84;;;16.77;49.77
6435;BME280;3250;42.694;23.278;2023-03-23T09:54:18;94933.78;;;16.59;50.96
6435;BME280;3250;42.694;23.278;2023-03-23T09:56:45;94910.22;;;16.29;50.69
6435;BME280;3250;42.694;23.278;2023-03-23T10:01:56;94923.56;;;16.51;50.56
6435;BME280;3250;42.694;23.278;2023-03-23T10:04:33;94933.56;;;16.27;50.58
6435;BME280;3250;42.694;23.278;2023-03-23T10:07:29;94911.56;;;15.76;51.19
6435;BME280;3250;42.694;23.278;2023-03-23T10:09:57;94909.47;;;15.62;51.22
6435;BME280;3250;42.694;23.278;2023-03-23T10:12:42;94903.69;;;15.65;51.97
6435;BME280;3250;42.694;23.278;2023-03-23T10:15:23;94924.25;;;15.74;53.11
6435;BME280;3250;42.694;23.278;2023-03-23T10:17:56;94900.56;;;15.39;51.84
6435;BME280;3250;42.694;23.278;2023-03-23T10:23:51;94912.06;;;15.57;51.68
6435;BME280;3250;42.694;23.278;2023-03-23T10:26:47;94879.03;;;15.53;52.99
6435;BME280;3250;42.694;23.278;2023-03-23T10:29:29;94914.72;;;15.90;51.80
6435;BME280;3250;42.694;23.278;2023-03-23T10:32:02;94920.81;;;16.07;54.57
6435;BME280;3250;42.694;23.278;2023-03-23T10:34:53;94906.66;;;15.85;51.19
6435;BME280;3250;42.694;23.278;2023-03-23T10:37:29;94903.03;;;15.74;52.14
6435;BME280;3250;42.694;23.278;2023-03-23T10:39:58;94920.03;;;15.73;52.03
6435;BME280;3250;42.694;23.278;2023-03-23T10:44:53;94917.38;;;15.57;52.14
6435;BME280;3250;42.694;23.278;2023-03-23T10:47:20;94913.91;;;15.56;52.81
6435;BME280;3250;42.694;23.278;2023-03-23T10:49:54;94900.06;;;15.71;55.04
6435;BME280;3250;42.694;23.278;2023-03-23T10:52:29;94896.03;;;15.85;55.30
6435;BME280;3250;42.694;23.278;2023-03-23T10:57:28;94882.06;;;15.73;53.23
6435;BME280;3250;42.694;23.278;2023-03-23T11:00:05;94882.53;;;15.87;52.59
6435;BME280;3250;42.694;23.278;2023-03-23T11:02:46;94898.03;;;16.11;55.25
6435;BME280;3250;42.694;23.278;2023-03-23T11:05:20;94894.00;;;16.09;51.71
6435;BME280;3250;42.694;23.278;2023-03-23T11:07:54;94902.47;;;16.06;51.07
6435;BME280;3250;42.694;23.278;2023-03-23T11:10:26;94895.31;;;15.90;51.83
6435;BME280;3250;42.694;23.278;2023-03-23T11:12:53;94902.09;;;15.80;51.64
6435;BME280;3250;42.694;23.278;2023-03-23T11:15:31;94887.38;;;15.73;52.02
6435;BME280;3250;42.694;23.278;2023-03-23T11:18:00;94880.28;;;15.62;51.88
6435;BME280;3250;42.694;23.278;2023-03-23T11:20:28;94881.31;;;15.61;51.83
6435;BME280;3250;42.694;23.278;2023-03-23T11:22:54;94869.28;;;15.41;51.83
6435;BME280;3250;42.694;23.278;2023-03-23T11:25:21;94861.56;;;15.40;54.81
6435;BME280;3250;42.694;23.278;2023-03-23T11:27:47;94865.91;;;15.13;52.34
6435;BME280;3250;42.694;23.278;2023-03-23T11:30:22;94878.00;;;15.08;53.43
6435;BME280;3250;42.694;23.278;2023-03-23T11:32:50;94852.56;;;15.24;53.55
6435;BME280;3250;42.694;23.278;2023-03-23T11:35:21;94857.06;;;15.40;53.45
6435;BME280;3250;42.694;23.278;2023-03-23T11:37:54;94854.72;;;15.56;52.96
6435;BME280;3250;42.694;23.278;2023-03-23T11:40:25;94817.56;;;15.56;53.32
6435;BME280;3250;42.694;23.278;2023-03-23T11:43:14;94858.84;;;16.02;51.39
6435;BME280;3250;42.694;23.278;2023-03-23T11:45:48;94840.69;;;15.94;51.78
6435;BME280;3250;42.694;23.278;2023-03-23T11:51:21;94850.75;;;15.75;51.20
6435;BME280;3250;42.694;23.278;2023-03-23T11:54:09;94854.72;;;15.72;52.47
6435;BME280;3250;42.694;23.278;2023-03-23T11:56:43;94845.59;;;15.85;51.28
6435;BME280;3250;42.694;23.278;2023-03-23T11:59:29;94844.81;;;15.68;50.92
6435;BME280;3250;42.694;23.278;2023-03-23T12:02:09;94828.44;;;15.54;52.20
6435;BME280;3250;42.694;23.278;2023-03-23T12:05:27;94844.78;;;15.51;53.30
6435;BME280;3250;42.694;23.278;2023-03-23T12:11:28;94835.41;;;15.60;52.72
6435;BME280;3250;42.694;23.278;2023-03-23T12:14:07;94827.38;;;15.55;52.82
6435;BME280;3250;42.694;23.278;2023-03-23T12:19:30;94820.06;;;15.62;52.65
6435;BME280;3250;42.694;23.278;2023-03-23T12:30:20;94823.47;;;15.96;50.28
6435;BME280;3250;42.694;23.278;2023-03-23T12:41:52;94814.88;;;16.11;50.77
6435;BME280;3250;42.694;23.278;2023-03-23T12:44:26;94800.25;;;16.08;51.64
6435;BME280;3250;42.694;23.278;2023-03-23T12:52:21;94812.19;;;16.49;49.23
6435;BME280;3250;42.694;23.278;2023-03-23T12:55:34;94813.47;;;16.47;49.87
6435;BME280;3250;42.694;23.278;2023-03-23T12:58:11;94787.16;;;16.23;49.89
6435;BME280;3250;42.694;23.278;2023-03-23T13:06:43;94797.94;;;15.95;49.94
6435;BME280;3250;42.694;23.278;2023-03-23T13:09:23;94770.06;;;15.76;50.15
6435;BME280;3250;42.694;23.278;2023-03-23T13:11:53;94799.09;;;15.99;50.44
6435;BME280;3250;42.694;23.278;2023-03-23T13:24:53;94785.94;;;16.31;50.79
6435;BME280;3250;42.694;23.278;2023-03-23T13:27:24;94765.03;;;16.18;50.21
6435;BME280;3250;42.694;23.278;2023-03-23T13:29:56;94780.38;;;16.33;51.49
6435;BME280;3250;42.694;23.278;2023-03-23T13:32:37;94785.16;;;16.36;51.07
6435;BME280;3250;42.694;23.278;2023-03-23T13:35:05;94790.81;;;16.39;49.23
6435;BME280;3250;42.694;23.278;2023-03-23T13:37:41;94756.66;;;16.04;49.18
6435;BME280;3250;42.694;23.278;2023-03-23T13:42:48;94770.19;;;16.25;50.90
6435;BME280;3250;42.694;23.278;2023-03-23T13:47:43;94772.00;;;16.46;50.69
6435;BME280;3250;42.694;23.278;2023-03-23T13:58:08;94774.97;;;16.49;48.88
6435;BME280;3250;42.694;23.278;2023-03-23T14:00:46;94763.19;;;16.40;48.72
6435;BME280;3250;42.694;23.278;2023-03-23T14:03:19;94762.81;;;16.32;50.34
6435;BME280;3250;42.694;23.278;2023-03-23T14:08:47;94745.41;;;16.19;50.60
6435;BME280;3250;42.694;23.278;2023-03-23T14:13:45;94762.28;;;16.08;50.71
6435;BME280;3250;42.694;23.278;2023-03-23T14:16:44;94757.03;;;16.13;50.61
6435;BME280;3250;42.694;23.278;2023-03-23T14:19:27;94750.19;;;16.17;49.13
6435;BME280;3250;42.694;23.278;2023-03-23T14:21:59;94748.56;;;16.16;50.33
6435;BME280;3250;42.694;23.278;2023-03-23T14:24:25;94745.16;;;16.20;50.25
6435;BME280;3250;42.694;23.278;2023-03-23T14:26:54;94731.50;;;16.12;50.18
6435;BME280;3250;42.694;23.278;2023-03-23T14:29:26;94730.94;;;16.10;50.16
6435;BME280;3250;42.694;23.278;2023-03-23T14:31:56;94753.72;;;16.28;50.06
6435;BME280;3250;42.694;23.278;2023-03-23T14:34:26;94748.38;;;16.22;50.46
6435;BME280;3250;42.694;23.278;2023-03-23T14:36:53;94739.78;;;16.15;50.15
6435;BME280;3250;42.694;23.278;2023-03-23T14:39:25;94751.63;;;16.30;49.93
6435;BME280;3250;42.694;23.278;2023-03-23T14:41:53;94753.13;;;16.20;50.21
6435;BME280;3250;42.694;23.278;2023-03-23T14:44:40;94754.03;;;16.09;50.00
6435;BME280;3250;42.694;23.278;2023-03-23T14:47:13;94760.97;;;16.10;50.66
6435;BME280;3250;42.694;23.278;2023-03-23T14:49:42;94753.50;;;16.07;51.55
6435;BME280;3250;42.694;23.278;2023-03-23T14:52:17;94738.25;;;15.98;50.92
6435;BME280;3250;42.694;23.278;2023-03-23T14:54:44;94720.09;;;15.90;50.95
6435;BME280;3250;42.694;23.278;2023-03-23T14:57:20;94746.88;;;16.10;51.20
6435;BME280;3250;42.694;23.278;2023-03-23T14:59:51;94745.53;;;16.07;51.62
6435;BME280;3250;42.694;23.278;2023-03-23T15:02:28;94741.41;;;16.16;51.32
6435;BME280;3250;42.694;23.278;2023-03-23T15:05:03;94744.06;;;16.16;50.98
6435;BME280;3250;42.694;23.278;2023-03-23T15:07:34;94733.91;;;16.13;51.07
6435;BME280;3250;42.694;23.278;2023-03-23T15:10:01;94677.59;;;15.68;50.35
6435;BME280;3250;42.694;23.278;2023-03-23T15:12:29;94740.59;;;15.94;51.08